PWSweather.com
Personal Weather Stations
Station Observations
KOHAVON11
Long Road Station, Avon, OH 44011

Long Road StationAvon, OH 44011

Lat: 41.437, Lon: -82.0477

Elevation: 686

Station Type: Davis Vantage Pro2

http://www.avon-weather.com

High Low Average
Temperature 71.4°F21.9°C 50.3°F10.2°C 59.5°F15.3°C
Dew Point 67.2°F19.6°C 38.9°F3.8°C 51.1°F10.6°C
Winds 17.0 mph 27.4 kmh Calm Calm 5.0 mph W8.0 kmh W
Wind Gusts 20.0 mph32.2 kmh -- 12.0 mph19.3 kmh
Humidity 89% 62% 75%
Pressure 29.87 in1011.5 mb 29.63 in1003.4 mb -
Precipitation 0.05 in1.3 mm - -
Hour Temp Dew Point Humidity Winds Wind Gusts Pressure Precip Precip Rate Daily Precip Total
12:04 AM 70.8°F21.6°C 66.3°F19.1°C 86% 10.0 mph S16.1 kmh S 15.0 mph24.1 kmh 29.65 in1004.1 mb 0.00 in0.0 mm 0.00 in0.0 mm 0.00 in0.0 mm
12:09 AM 70.8°F21.6°C 66.3°F19.1°C 86% 8.0 mph SSE12.9 kmh SSE 13.0 mph20.9 kmh 29.65 in1004.1 mb 0.00 in0.0 mm 0.00 in0.0 mm 0.00 in0.0 mm
12:14 AM 70.8°F21.6°C 66.3°F19.1°C 86% 7.0 mph S11.3 kmh S 16.0 mph25.7 kmh 29.65 in1004.1 mb 0.00 in0.0 mm 0.00 in0.0 mm 0.00 in0.0 mm
12:19 AM 70.8°F21.6°C 66.6°F19.2°C 87% 9.0 mph SSW14.5 kmh SSW 16.0 mph25.7 kmh 29.65 in1004.1 mb 0.00 in0.0 mm 0.00 in0.0 mm 0.00 in0.0 mm
12:24 AM 70.9°F21.6°C 66.7°F19.3°C 87% 5.0 mph SSW8.0 kmh SSW 16.0 mph25.7 kmh 29.65 in1004.1 mb 0.00 in0.0 mm 0.00 in0.0 mm 0.00 in0.0 mm
12:29 AM 70.9°F21.6°C 66.7°F19.3°C 87% 5.0 mph SSW8.0 kmh SSW 16.0 mph25.7 kmh 29.65 in1004.1 mb 0.00 in0.0 mm 0.00 in0.0 mm 0.00 in0.0 mm
12:34 AM 71.0°F21.7°C 66.8°F19.3°C 87% 8.0 mph SSW12.9 kmh SSW 13.0 mph20.9 kmh 29.65 in1004.1 mb 0.00 in0.0 mm 0.00 in0.0 mm 0.00 in0.0 mm
12:39 AM 71.0°F21.7°C 66.8°F19.3°C 87% 7.0 mph SW11.3 kmh SW 15.0 mph24.1 kmh 29.65 in1004.1 mb 0.00 in0.0 mm 0.00 in0.0 mm 0.00 in0.0 mm
12:44 AM 71.1°F21.7°C 66.9°F19.4°C 87% 11.0 mph S17.7 kmh S 16.0 mph25.7 kmh 29.65 in1004.1 mb 0.00 in0.0 mm 0.00 in0.0 mm 0.00 in0.0 mm
12:49 AM 71.2°F21.8°C 67.0°F19.4°C 87% 7.0 mph SSW11.3 kmh SSW 16.0 mph25.7 kmh 29.65 in1004.1 mb 0.00 in0.0 mm 0.00 in0.0 mm 0.00 in0.0 mm
12:54 AM 71.2°F21.8°C 66.7°F19.3°C 86% 8.0 mph SW12.9 kmh SW 16.0 mph25.7 kmh 29.65 in1004.1 mb 0.00 in0.0 mm 0.00 in0.0 mm 0.00 in0.0 mm
12:59 AM 71.3°F21.8°C 66.8°F19.3°C 86% 8.0 mph SSW12.9 kmh SSW 16.0 mph25.7 kmh 29.64 in1003.7 mb 0.00 in0.0 mm 0.00 in0.0 mm 0.00 in0.0 mm
01:04 AM 71.3°F21.8°C 66.8°F19.3°C 86% 6.0 mph SSW9.7 kmh SSW 15.0 mph24.1 kmh 29.64 in1003.7 mb 0.00 in0.0 mm 0.00 in0.0 mm 0.00 in0.0 mm
01:09 AM 71.3°F21.8°C 66.8°F19.3°C 86% 8.0 mph SW12.9 kmh SW 15.0 mph24.1 kmh 29.65 in1004.1 mb 0.00 in0.0 mm 0.00 in0.0 mm 0.00 in0.0 mm
01:14 AM 71.4°F21.9°C 67.2°F19.6°C 87% 8.0 mph WNW12.9 kmh WNW 14.0 mph22.5 kmh 29.65 in1004.1 mb 0.65 in16.5 mm 7.80 in198.1 mm 0.01 in0.3 mm
01:19 AM 71.1°F21.7°C 66.6°F19.2°C 86% 7.0 mph W11.3 kmh W 14.0 mph22.5 kmh 29.65 in1004.1 mb 0.17 in4.3 mm 0.00 in0.0 mm 0.03 in0.8 mm
01:24 AM 70.8°F21.6°C 66.3°F19.1°C 86% 1.0 mph SW1.6 kmh SW 9.0 mph14.5 kmh 29.65 in1004.1 mb 0.11 in2.8 mm 0.00 in0.0 mm 0.04 in1.0 mm
01:29 AM 70.5°F21.4°C 66.0°F18.9°C 86% 5.0 mph WSW8.0 kmh WSW 9.0 mph14.5 kmh 29.65 in1004.1 mb 0.07 in1.8 mm 0.00 in0.0 mm 0.04 in1.0 mm
01:34 AM 70.4°F21.3°C 66.3°F19.1°C 87% 8.0 mph SW12.9 kmh SW 14.0 mph22.5 kmh 29.64 in1003.7 mb 0.05 in1.3 mm 0.00 in0.0 mm 0.04 in1.0 mm
01:39 AM 70.4°F21.3°C 66.3°F19.1°C 87% 7.0 mph SW11.3 kmh SW 17.0 mph27.4 kmh 29.64 in1003.7 mb 0.00 in0.0 mm 0.00 in0.0 mm 0.04 in1.0 mm
01:44 AM 70.5°F21.4°C 66.7°F19.3°C 88% 6.0 mph SW9.7 kmh SW 17.0 mph27.4 kmh 29.64 in1003.7 mb 0.00 in0.0 mm 0.00 in0.0 mm 0.04 in1.0 mm
01:49 AM 70.5°F21.4°C 66.7°F19.3°C 88% 4.0 mph S6.4 kmh S 17.0 mph27.4 kmh 29.64 in1003.7 mb 0.00 in0.0 mm 0.00 in0.0 mm 0.04 in1.0 mm
01:54 AM 70.5°F21.4°C 66.7°F19.3°C 88% 6.0 mph SSW9.7 kmh SSW 17.0 mph27.4 kmh 29.64 in1003.7 mb 0.00 in0.0 mm 0.00 in0.0 mm 0.04 in1.0 mm
01:59 AM 70.5°F21.4°C 66.7°F19.3°C 88% 6.0 mph SW9.7 kmh SW 10.0 mph16.1 kmh 29.64 in1003.7 mb 0.00 in0.0 mm 0.00 in0.0 mm 0.04 in1.0 mm
02:04 AM 70.5°F21.4°C 66.7°F19.3°C 88% 4.0 mph SSW6.4 kmh SSW 10.0 mph16.1 kmh 29.64 in1003.7 mb 0.00 in0.0 mm 0.00 in0.0 mm 0.04 in1.0 mm
02:09 AM 70.5°F21.4°C 66.7°F19.3°C 88% 4.0 mph SW6.4 kmh SW 10.0 mph16.1 kmh 29.64 in1003.7 mb 0.00 in0.0 mm 0.00 in0.0 mm 0.04 in1.0 mm
02:14 AM 70.4°F21.3°C 66.6°F19.2°C 88% 4.0 mph S6.4 kmh S 10.0 mph16.1 kmh 29.64 in1003.7 mb 0.00 in0.0 mm 0.00 in0.0 mm 0.04 in1.0 mm
02:19 AM 70.4°F21.3°C 66.6°F19.2°C 88% 6.0 mph SW9.7 kmh SW 9.0 mph14.5 kmh 29.64 in1003.7 mb 0.00 in0.0 mm 0.00 in0.0 mm 0.04 in1.0 mm
02:24 AM 70.4°F21.3°C 66.6°F19.2°C 88% Calm Calm 9.0 mph14.5 kmh 29.65 in1004.1 mb 0.00 in0.0 mm 0.00 in0.0 mm 0.04 in1.0 mm
02:29 AM 70.4°F21.3°C 66.9°F19.4°C 89% 6.0 mph S9.7 kmh S 9.0 mph14.5 kmh 29.65 in1004.1 mb 0.00 in0.0 mm 0.00 in0.0 mm 0.04 in1.0 mm
02:34 AM 70.4°F21.3°C 66.9°F19.4°C 89% Calm Calm 9.0 mph14.5 kmh 29.65 in1004.1 mb 0.00 in0.0 mm 0.00 in0.0 mm 0.04 in1.0 mm
02:39 AM 70.5°F21.4°C 67.0°F19.4°C 89% Calm Calm -- 29.65 in1004.1 mb 0.00 in0.0 mm 0.00 in0.0 mm 0.04 in1.0 mm
02:44 AM 70.5°F21.4°C 67.0°F19.4°C 89% Calm Calm 4.0 mph6.4 kmh 29.65 in1004.1 mb 0.00 in0.0 mm 0.00 in0.0 mm 0.04 in1.0 mm
02:49 AM 70.5°F21.4°C 67.0°F19.4°C 89% Calm Calm 4.0 mph6.4 kmh 29.65 in1004.1 mb 0.00 in0.0 mm 0.00 in0.0 mm 0.04 in1.0 mm
02:54 AM 70.4°F21.3°C 66.9°F19.4°C 89% Calm Calm -- 29.64 in1003.7 mb 0.00 in0.0 mm 0.00 in0.0 mm 0.04 in1.0 mm
02:59 AM 70.5°F21.4°C 67.0°F19.4°C 89% Calm Calm -- 29.64 in1003.7 mb 0.00 in0.0 mm 0.00 in0.0 mm 0.04 in1.0 mm
03:04 AM 70.5°F21.4°C 67.0°F19.4°C 89% Calm Calm -- 29.64 in1003.7 mb 0.00 in0.0 mm 0.00 in0.0 mm 0.04 in1.0 mm
03:09 AM 70.5°F21.4°C 67.0°F19.4°C 89% Calm Calm 5.0 mph8.0 kmh 29.64 in1003.7 mb 0.00 in0.0 mm 0.00 in0.0 mm 0.04 in1.0 mm
03:14 AM 70.5°F21.4°C 67.0°F19.4°C 89% Calm Calm 4.0 mph6.4 kmh 29.64 in1003.7 mb 0.00 in0.0 mm 0.00 in0.0 mm 0.04 in1.0 mm
03:19 AM 70.4°F21.3°C 66.9°F19.4°C 89% 3.0 mph S4.8 kmh S 3.0 mph4.8 kmh 29.64 in1003.7 mb 0.00 in0.0 mm 0.00 in0.0 mm 0.04 in1.0 mm
03:24 AM 70.4°F21.3°C 66.9°F19.4°C 89% Calm Calm -- 29.64 in1003.7 mb 0.00 in0.0 mm 0.00 in0.0 mm 0.04 in1.0 mm
03:29 AM 70.4°F21.3°C 66.9°F19.4°C 89% 2.0 mph WSW3.2 kmh WSW 6.0 mph9.7 kmh 29.64 in1003.7 mb 0.00 in0.0 mm 0.00 in0.0 mm 0.04 in1.0 mm
03:34 AM 70.4°F21.3°C 66.9°F19.4°C 89% Calm Calm 7.0 mph11.3 kmh 29.64 in1003.7 mb 0.00 in0.0 mm 0.00 in0.0 mm 0.04 in1.0 mm
03:39 AM 70.3°F21.3°C 66.8°F19.3°C 89% Calm Calm 1.0 mph1.6 kmh 29.64 in1003.7 mb 0.00 in0.0 mm 0.00 in0.0 mm 0.04 in1.0 mm
03:44 AM 70.2°F21.2°C 66.7°F19.3°C 89% Calm Calm -- 29.64 in1003.7 mb 0.00 in0.0 mm 0.00 in0.0 mm 0.04 in1.0 mm
03:49 AM 70.2°F21.2°C 66.7°F19.3°C 89% 2.0 mph WSW3.2 kmh WSW 5.0 mph8.0 kmh 29.64 in1003.7 mb 0.00 in0.0 mm 0.00 in0.0 mm 0.04 in1.0 mm
03:54 AM 70.1°F21.2°C 66.3°F19.1°C 88% Calm Calm 4.0 mph6.4 kmh 29.64 in1003.7 mb 0.00 in0.0 mm 0.00 in0.0 mm 0.04 in1.0 mm
03:59 AM 70.1°F21.2°C 66.3°F19.1°C 88% Calm Calm 4.0 mph6.4 kmh 29.64 in1003.7 mb 0.00 in0.0 mm 0.00 in0.0 mm 0.04 in1.0 mm
04:04 AM 70.0°F21.1°C 66.2°F19.0°C 88% Calm Calm 8.0 mph12.9 kmh 29.63 in1003.4 mb 0.00 in0.0 mm 0.00 in0.0 mm 0.04 in1.0 mm
04:09 AM 69.9°F21.1°C 66.1°F18.9°C 88% 2.0 mph WSW3.2 kmh WSW 2.0 mph3.2 kmh 29.63 in1003.4 mb 0.00 in0.0 mm 0.00 in0.0 mm 0.04 in1.0 mm
04:14 AM 69.8°F21.0°C 66.0°F18.9°C 88% 1.0 mph WSW1.6 kmh WSW 4.0 mph6.4 kmh 29.63 in1003.4 mb 0.00 in0.0 mm 0.00 in0.0 mm 0.04 in1.0 mm
04:19 AM 69.7°F20.9°C 65.9°F18.8°C 88% Calm Calm 7.0 mph11.3 kmh 29.64 in1003.7 mb 0.00 in0.0 mm 0.00 in0.0 mm 0.04 in1.0 mm
04:24 AM 69.6°F20.9°C 65.8°F18.8°C 88% 2.0 mph WSW3.2 kmh WSW 7.0 mph11.3 kmh 29.64 in1003.7 mb 0.00 in0.0 mm 0.00 in0.0 mm 0.04 in1.0 mm
04:29 AM 69.5°F20.8°C 65.7°F18.7°C 88% 4.0 mph WSW6.4 kmh WSW 8.0 mph12.9 kmh 29.64 in1003.7 mb 0.00 in0.0 mm 0.00 in0.0 mm 0.04 in1.0 mm
04:34 AM 69.4°F20.8°C 65.6°F18.7°C 88% 2.0 mph WSW3.2 kmh WSW 8.0 mph12.9 kmh 29.64 in1003.7 mb 0.00 in0.0 mm 0.00 in0.0 mm 0.04 in1.0 mm
04:39 AM 69.3°F20.7°C 65.5°F18.6°C 88% 2.0 mph WSW3.2 kmh WSW 5.0 mph8.0 kmh 29.64 in1003.7 mb 0.00 in0.0 mm 0.00 in0.0 mm 0.04 in1.0 mm
04:44 AM 69.2°F20.7°C 65.4°F18.6°C 88% 3.0 mph WSW4.8 kmh WSW 5.0 mph8.0 kmh 29.64 in1003.7 mb 0.00 in0.0 mm 0.00 in0.0 mm 0.04 in1.0 mm
04:49 AM 69.1°F20.6°C 65.3°F18.5°C 88% 3.0 mph WSW4.8 kmh WSW 8.0 mph12.9 kmh 29.64 in1003.7 mb 0.00 in0.0 mm 0.00 in0.0 mm 0.04 in1.0 mm
04:54 AM 69.0°F20.6°C 65.2°F18.4°C 88% 3.0 mph WSW4.8 kmh WSW 8.0 mph12.9 kmh 29.64 in1003.7 mb 0.00 in0.0 mm 0.00 in0.0 mm 0.04 in1.0 mm
04:59 AM 68.9°F20.5°C 65.1°F18.4°C 88% Calm Calm 5.0 mph8.0 kmh 29.64 in1003.7 mb 0.00 in0.0 mm 0.00 in0.0 mm 0.04 in1.0 mm
05:04 AM 68.8°F20.4°C 65.0°F18.3°C 88% 2.0 mph WSW3.2 kmh WSW 4.0 mph6.4 kmh 29.64 in1003.7 mb 0.00 in0.0 mm 0.00 in0.0 mm 0.04 in1.0 mm
05:09 AM 68.8°F20.4°C 65.0°F18.3°C 88% 4.0 mph WSW6.4 kmh WSW 7.0 mph11.3 kmh 29.64 in1003.7 mb 0.00 in0.0 mm 0.00 in0.0 mm 0.04 in1.0 mm
05:14 AM 68.7°F20.4°C 64.9°F18.3°C 88% 1.0 mph WSW1.6 kmh WSW 7.0 mph11.3 kmh 29.64 in1003.7 mb 0.00 in0.0 mm 0.00 in0.0 mm 0.04 in1.0 mm
05:19 AM 68.7°F20.4°C 64.9°F18.3°C 88% Calm Calm 9.0 mph14.5 kmh 29.65 in1004.1 mb 0.00 in0.0 mm 0.00 in0.0 mm 0.04 in1.0 mm
05:24 AM 68.6°F20.3°C 64.5°F18.1°C 87% 3.0 mph WNW4.8 kmh WNW 9.0 mph14.5 kmh 29.64 in1003.7 mb 0.00 in0.0 mm 0.00 in0.0 mm 0.04 in1.0 mm
05:29 AM 68.5°F20.3°C 64.4°F18.0°C 87% 4.0 mph WNW6.4 kmh WNW 8.0 mph12.9 kmh 29.64 in1003.7 mb 0.00 in0.0 mm 0.00 in0.0 mm 0.04 in1.0 mm
05:34 AM 68.4°F20.2°C 64.3°F17.9°C 87% 2.0 mph WSW3.2 kmh WSW 9.0 mph14.5 kmh 29.64 in1003.7 mb 0.00 in0.0 mm 0.00 in0.0 mm 0.04 in1.0 mm
05:39 AM 68.3°F20.2°C 64.2°F17.9°C 87% 2.0 mph WSW3.2 kmh WSW 10.0 mph16.1 kmh 29.64 in1003.7 mb 0.00 in0.0 mm 0.00 in0.0 mm 0.04 in1.0 mm
05:44 AM 68.3°F20.2°C 64.2°F17.9°C 87% 5.0 mph WSW8.0 kmh WSW 10.0 mph16.1 kmh 29.64 in1003.7 mb 0.00 in0.0 mm 0.00 in0.0 mm 0.04 in1.0 mm
05:49 AM 68.2°F20.1°C 64.1°F17.8°C 87% 3.0 mph WSW4.8 kmh WSW 10.0 mph16.1 kmh 29.64 in1003.7 mb 0.00 in0.0 mm 0.00 in0.0 mm 0.04 in1.0 mm
05:54 AM 68.1°F20.1°C 64.0°F17.8°C 87% 4.0 mph W6.4 kmh W 10.0 mph16.1 kmh 29.64 in1003.7 mb 0.00 in0.0 mm 0.00 in0.0 mm 0.04 in1.0 mm
05:59 AM 68.1°F20.1°C 64.0°F17.8°C 87% Calm Calm 8.0 mph12.9 kmh 29.64 in1003.7 mb 0.00 in0.0 mm 0.00 in0.0 mm 0.04 in1.0 mm
06:04 AM 68.0°F20.0°C 63.9°F17.7°C 87% Calm Calm 9.0 mph14.5 kmh 29.64 in1003.7 mb 0.00 in0.0 mm 0.00 in0.0 mm 0.04 in1.0 mm
06:09 AM 67.9°F19.9°C 63.8°F17.7°C 87% Calm Calm 3.0 mph4.8 kmh 29.64 in1003.7 mb 0.00 in0.0 mm 0.00 in0.0 mm 0.04 in1.0 mm
06:14 AM 67.8°F19.9°C 63.7°F17.6°C 87% Calm Calm 6.0 mph9.7 kmh 29.64 in1003.7 mb 0.00 in0.0 mm 0.00 in0.0 mm 0.04 in1.0 mm
06:19 AM 67.7°F19.8°C 63.6°F17.6°C 87% 8.0 mph SW12.9 kmh SW 8.0 mph12.9 kmh 29.64 in1003.7 mb 0.00 in0.0 mm 0.00 in0.0 mm 0.04 in1.0 mm
06:24 AM 67.6°F19.8°C 63.5°F17.5°C 87% Calm Calm 8.0 mph12.9 kmh 29.64 in1003.7 mb 0.00 in0.0 mm 0.00 in0.0 mm 0.04 in1.0 mm
06:29 AM 67.5°F19.7°C 63.4°F17.4°C 87% 4.0 mph WSW6.4 kmh WSW 9.0 mph14.5 kmh 29.64 in1003.7 mb 0.00 in0.0 mm 0.00 in0.0 mm 0.04 in1.0 mm
06:34 AM 67.5°F19.7°C 63.4°F17.4°C 87% 2.0 mph WSW3.2 kmh WSW 9.0 mph14.5 kmh 29.64 in1003.7 mb 0.00 in0.0 mm 0.00 in0.0 mm 0.04 in1.0 mm
06:39 AM 67.4°F19.7°C 63.3°F17.4°C 87% 7.0 mph WSW11.3 kmh WSW 9.0 mph14.5 kmh 29.64 in1003.7 mb 0.00 in0.0 mm 0.00 in0.0 mm 0.04 in1.0 mm
06:44 AM 67.4°F19.7°C 63.3°F17.4°C 87% Calm Calm -- 29.65 in1004.1 mb 0.00 in0.0 mm 0.00 in0.0 mm 0.04 in1.0 mm
06:49 AM 67.3°F19.6°C 63.2°F17.3°C 87% Calm Calm -- 29.65 in1004.1 mb 0.00 in0.0 mm 0.00 in0.0 mm 0.04 in1.0 mm
06:54 AM 67.3°F19.6°C 63.2°F17.3°C 87% 7.0 mph WSW11.3 kmh WSW 8.0 mph12.9 kmh 29.65 in1004.1 mb 0.00 in0.0 mm 0.00 in0.0 mm 0.04 in1.0 mm
06:59 AM 66.8°F19.3°C 62.4°F16.9°C 86% 5.0 mph W8.0 kmh W 10.0 mph16.1 kmh 29.65 in1004.1 mb 0.00 in0.0 mm 0.00 in0.0 mm 0.04 in1.0 mm
07:04 AM 66.4°F19.1°C 61.7°F16.5°C 85% 4.0 mph WSW6.4 kmh WSW 12.0 mph19.3 kmh 29.66 in1004.4 mb 0.00 in0.0 mm 0.00 in0.0 mm 0.04 in1.0 mm
07:09 AM 66.0°F18.9°C 61.3°F16.3°C 85% 3.0 mph WSW4.8 kmh WSW 15.0 mph24.1 kmh 29.66 in1004.4 mb 0.00 in0.0 mm 0.00 in0.0 mm 0.04 in1.0 mm
07:14 AM 65.7°F18.7°C 61.0°F16.1°C 85% 6.0 mph W9.7 kmh W 17.0 mph27.4 kmh 29.66 in1004.4 mb 0.00 in0.0 mm 0.00 in0.0 mm 0.05 in1.3 mm
07:19 AM 65.1°F18.4°C 60.0°F15.6°C 84% 8.0 mph SW12.9 kmh SW 19.0 mph30.6 kmh 29.67 in1004.7 mb 0.00 in0.0 mm 0.00 in0.0 mm 0.05 in1.3 mm
07:24 AM 64.4°F18.0°C 59.0°F15.0°C 83% 5.0 mph WSW8.0 kmh WSW 19.0 mph30.6 kmh 29.68 in1005.1 mb 0.00 in0.0 mm 0.00 in0.0 mm 0.05 in1.3 mm
07:29 AM 63.8°F17.7°C 58.4°F14.7°C 83% 11.0 mph WSW17.7 kmh WSW 19.0 mph30.6 kmh 29.68 in1005.1 mb 0.00 in0.0 mm 0.00 in0.0 mm 0.05 in1.3 mm
07:34 AM 63.3°F17.4°C 57.9°F14.4°C 83% 5.0 mph WSW8.0 kmh WSW 19.0 mph30.6 kmh 29.68 in1005.1 mb 0.00 in0.0 mm 0.00 in0.0 mm 0.05 in1.3 mm
07:39 AM 62.7°F17.1°C 57.0°F13.9°C 82% 6.0 mph WSW9.7 kmh WSW 15.0 mph24.1 kmh 29.68 in1005.1 mb 0.00 in0.0 mm 0.00 in0.0 mm 0.05 in1.3 mm
07:44 AM 62.2°F16.8°C 56.5°F13.6°C 82% 3.0 mph WSW4.8 kmh WSW 15.0 mph24.1 kmh 29.68 in1005.1 mb 0.00 in0.0 mm 0.00 in0.0 mm 0.05 in1.3 mm
07:49 AM 61.9°F16.6°C 56.6°F13.7°C 83% 8.0 mph SW12.9 kmh SW 15.0 mph24.1 kmh 29.68 in1005.1 mb 0.00 in0.0 mm 0.00 in0.0 mm 0.05 in1.3 mm
07:54 AM 61.6°F16.4°C 56.3°F13.5°C 83% 7.0 mph W11.3 kmh W 15.0 mph24.1 kmh 29.69 in1005.4 mb 0.00 in0.0 mm 0.00 in0.0 mm 0.05 in1.3 mm
07:59 AM 61.4°F16.3°C 56.1°F13.4°C 83% 3.0 mph WSW4.8 kmh WSW 15.0 mph24.1 kmh 29.69 in1005.4 mb 0.00 in0.0 mm 0.00 in0.0 mm 0.05 in1.3 mm
08:04 AM 61.0°F16.1°C 55.4°F13.0°C 82% 9.0 mph WSW14.5 kmh WSW 15.0 mph24.1 kmh 29.70 in1005.8 mb 0.00 in0.0 mm 0.00 in0.0 mm 0.05 in1.3 mm
08:09 AM 60.5°F15.8°C 54.5°F12.5°C 81% 7.0 mph WSW11.3 kmh WSW 15.0 mph24.1 kmh 29.70 in1005.8 mb 0.00 in0.0 mm 0.00 in0.0 mm 0.05 in1.3 mm
08:14 AM 59.9°F15.5°C 53.2°F11.8°C 79% 5.0 mph WSW8.0 kmh WSW 16.0 mph25.7 kmh 29.70 in1005.8 mb 0.00 in0.0 mm 0.00 in0.0 mm 0.05 in1.3 mm
08:19 AM 59.3°F15.2°C 52.0°F11.1°C 77% 9.0 mph W14.5 kmh W 16.0 mph25.7 kmh 29.70 in1005.8 mb 0.00 in0.0 mm 0.00 in0.0 mm 0.05 in1.3 mm
08:24 AM 59.0°F15.0°C 52.0°F11.1°C 78% 6.0 mph WSW9.7 kmh WSW 16.0 mph25.7 kmh 29.70 in1005.8 mb 0.00 in0.0 mm 0.00 in0.0 mm 0.05 in1.3 mm
08:29 AM 58.8°F14.9°C 52.2°F11.2°C 79% 7.0 mph WSW11.3 kmh WSW 16.0 mph25.7 kmh 29.71 in1006.1 mb 0.00 in0.0 mm 0.00 in0.0 mm 0.05 in1.3 mm
08:34 AM 58.7°F14.8°C 52.1°F11.2°C 79% 7.0 mph WSW11.3 kmh WSW 13.0 mph20.9 kmh 29.71 in1006.1 mb 0.00 in0.0 mm 0.00 in0.0 mm 0.05 in1.3 mm
08:39 AM 58.6°F14.8°C 52.3°F11.3°C 80% 5.0 mph WSW8.0 kmh WSW 13.0 mph20.9 kmh 29.71 in1006.1 mb 0.00 in0.0 mm 0.00 in0.0 mm 0.05 in1.3 mm
08:44 AM 58.6°F14.8°C 52.7°F11.5°C 81% 4.0 mph W6.4 kmh W 10.0 mph16.1 kmh 29.71 in1006.1 mb 0.00 in0.0 mm 0.00 in0.0 mm 0.05 in1.3 mm
08:49 AM 58.5°F14.7°C 52.2°F11.2°C 80% 2.0 mph WSW3.2 kmh WSW 13.0 mph20.9 kmh 29.71 in1006.1 mb 0.00 in0.0 mm 0.00 in0.0 mm 0.05 in1.3 mm
08:54 AM 58.5°F14.7°C 52.6°F11.4°C 81% 5.0 mph WSW8.0 kmh WSW 13.0 mph20.9 kmh 29.71 in1006.1 mb 0.00 in0.0 mm 0.00 in0.0 mm 0.05 in1.3 mm
08:59 AM 58.5°F14.7°C 52.6°F11.4°C 81% 5.0 mph WSW8.0 kmh WSW 13.0 mph20.9 kmh 29.71 in1006.1 mb 0.00 in0.0 mm 0.00 in0.0 mm 0.05 in1.3 mm
09:04 AM 58.5°F14.7°C 52.6°F11.4°C 81% 4.0 mph WSW6.4 kmh WSW 13.0 mph20.9 kmh 29.72 in1006.4 mb 0.00 in0.0 mm 0.00 in0.0 mm 0.05 in1.3 mm
09:09 AM 58.4°F14.7°C 52.1°F11.2°C 80% 6.0 mph W9.7 kmh W 11.0 mph17.7 kmh 29.72 in1006.4 mb 0.00 in0.0 mm 0.00 in0.0 mm 0.05 in1.3 mm
09:14 AM 58.4°F14.7°C 52.5°F11.4°C 81% 4.0 mph SW6.4 kmh SW 11.0 mph17.7 kmh 29.72 in1006.4 mb 0.00 in0.0 mm 0.00 in0.0 mm 0.05 in1.3 mm
09:19 AM 58.5°F14.7°C 52.6°F11.4°C 81% 4.0 mph WSW6.4 kmh WSW 11.0 mph17.7 kmh 29.72 in1006.4 mb 0.00 in0.0 mm 0.00 in0.0 mm 0.05 in1.3 mm
09:24 AM 58.5°F14.7°C 52.2°F11.2°C 80% 4.0 mph WSW6.4 kmh WSW 11.0 mph17.7 kmh 29.72 in1006.4 mb 0.00 in0.0 mm 0.00 in0.0 mm 0.05 in1.3 mm
09:29 AM 58.5°F14.7°C 52.2°F11.2°C 80% 7.0 mph WSW11.3 kmh WSW 11.0 mph17.7 kmh 29.72 in1006.4 mb 0.00 in0.0 mm 0.00 in0.0 mm 0.05 in1.3 mm
09:34 AM 58.6°F14.8°C 52.3°F11.3°C 80% 3.0 mph SW4.8 kmh SW 12.0 mph19.3 kmh 29.73 in1006.8 mb 0.00 in0.0 mm 0.00 in0.0 mm 0.05 in1.3 mm
09:39 AM 58.6°F14.8°C 52.3°F11.3°C 80% 5.0 mph W8.0 kmh W 12.0 mph19.3 kmh 29.73 in1006.8 mb 0.00 in0.0 mm 0.00 in0.0 mm 0.05 in1.3 mm
09:44 AM 58.6°F14.8°C 52.3°F11.3°C 80% 3.0 mph W4.8 kmh W 14.0 mph22.5 kmh 29.73 in1006.8 mb 0.00 in0.0 mm 0.00 in0.0 mm 0.05 in1.3 mm
09:49 AM 58.6°F14.8°C 52.3°F11.3°C 80% 3.0 mph W4.8 kmh W 14.0 mph22.5 kmh 29.73 in1006.8 mb 0.00 in0.0 mm 0.00 in0.0 mm 0.05 in1.3 mm
09:54 AM 58.6°F14.8°C 52.3°F11.3°C 80% 6.0 mph WSW9.7 kmh WSW 14.0 mph22.5 kmh 29.74 in1007.1 mb 0.00 in0.0 mm 0.00 in0.0 mm 0.05 in1.3 mm
09:59 AM 58.6°F14.8°C 52.3°F11.3°C 80% 5.0 mph WSW8.0 kmh WSW 14.0 mph22.5 kmh 29.74 in1007.1 mb 0.00 in0.0 mm 0.00 in0.0 mm 0.05 in1.3 mm
10:04 AM 58.5°F14.7°C 52.2°F11.2°C 80% 6.0 mph WSW9.7 kmh WSW 14.0 mph22.5 kmh 29.74 in1007.1 mb 0.00 in0.0 mm 0.00 in0.0 mm 0.05 in1.3 mm
10:09 AM 58.5°F14.7°C 52.2°F11.2°C 80% 7.0 mph W11.3 kmh W 14.0 mph22.5 kmh 29.74 in1007.1 mb 0.00 in0.0 mm 0.00 in0.0 mm 0.05 in1.3 mm
10:14 AM 58.5°F14.7°C 52.2°F11.2°C 80% 2.0 mph W3.2 kmh W 14.0 mph22.5 kmh 29.74 in1007.1 mb 0.00 in0.0 mm 0.00 in0.0 mm 0.05 in1.3 mm
10:19 AM 58.6°F14.8°C 52.3°F11.3°C 80% 5.0 mph W8.0 kmh W 14.0 mph22.5 kmh 29.74 in1007.1 mb 0.00 in0.0 mm 0.00 in0.0 mm 0.05 in1.3 mm
10:24 AM 58.5°F14.7°C 52.2°F11.2°C 80% 6.0 mph WSW9.7 kmh WSW 14.0 mph22.5 kmh 29.74 in1007.1 mb 0.00 in0.0 mm 0.00 in0.0 mm 0.05 in1.3 mm
10:29 AM 58.6°F14.8°C 52.3°F11.3°C 80% 4.0 mph WSW6.4 kmh WSW 14.0 mph22.5 kmh 29.74 in1007.1 mb 0.00 in0.0 mm 0.00 in0.0 mm 0.05 in1.3 mm
10:34 AM 58.6°F14.8°C 52.3°F11.3°C 80% 3.0 mph W4.8 kmh W 9.0 mph14.5 kmh 29.74 in1007.1 mb 0.00 in0.0 mm 0.00 in0.0 mm 0.05 in1.3 mm
10:39 AM 58.6°F14.8°C 52.3°F11.3°C 80% 7.0 mph W11.3 kmh W 9.0 mph14.5 kmh 29.74 in1007.1 mb 0.00 in0.0 mm 0.00 in0.0 mm 0.05 in1.3 mm
10:44 AM 58.5°F14.7°C 52.2°F11.2°C 80% 4.0 mph W6.4 kmh W 14.0 mph22.5 kmh 29.74 in1007.1 mb 0.00 in0.0 mm 0.00 in0.0 mm 0.05 in1.3 mm
10:49 AM 58.4°F14.7°C 51.4°F10.8°C 78% 3.0 mph WSW4.8 kmh WSW 14.0 mph22.5 kmh 29.74 in1007.1 mb 0.00 in0.0 mm 0.00 in0.0 mm 0.05 in1.3 mm
10:54 AM 58.3°F14.6°C 51.3°F10.7°C 78% 5.0 mph WSW8.0 kmh WSW 14.0 mph22.5 kmh 29.75 in1007.5 mb 0.00 in0.0 mm 0.00 in0.0 mm 0.05 in1.3 mm
10:59 AM 58.1°F14.5°C 50.8°F10.4°C 77% 4.0 mph W6.4 kmh W 14.0 mph22.5 kmh 29.75 in1007.5 mb 0.00 in0.0 mm 0.00 in0.0 mm 0.05 in1.3 mm
11:04 AM 58.1°F14.5°C 50.8°F10.4°C 77% 3.0 mph W4.8 kmh W 14.0 mph22.5 kmh 29.74 in1007.1 mb 0.00 in0.0 mm 0.00 in0.0 mm 0.05 in1.3 mm
11:09 AM 58.0°F14.4°C 50.3°F10.2°C 76% 7.0 mph WSW11.3 kmh WSW 14.0 mph22.5 kmh 29.74 in1007.1 mb 0.00 in0.0 mm 0.00 in0.0 mm 0.05 in1.3 mm
11:14 AM 58.1°F14.5°C 50.4°F10.2°C 76% 7.0 mph WSW11.3 kmh WSW 14.0 mph22.5 kmh 29.74 in1007.1 mb 0.00 in0.0 mm 0.00 in0.0 mm 0.05 in1.3 mm
11:19 AM 58.2°F14.6°C 50.5°F10.3°C 76% 9.0 mph WSW14.5 kmh WSW 14.0 mph22.5 kmh 29.74 in1007.1 mb 0.00 in0.0 mm 0.00 in0.0 mm 0.05 in1.3 mm
11:24 AM 58.1°F14.5°C 50.1°F10.1°C 75% 4.0 mph WNW6.4 kmh WNW 14.0 mph22.5 kmh 29.74 in1007.1 mb 0.00 in0.0 mm 0.00 in0.0 mm 0.05 in1.3 mm
11:29 AM 57.9°F14.4°C 49.9°F9.9°C 75% 7.0 mph WSW11.3 kmh WSW 14.0 mph22.5 kmh 29.74 in1007.1 mb 0.00 in0.0 mm 0.00 in0.0 mm 0.05 in1.3 mm
11:34 AM 57.9°F14.4°C 50.6°F10.3°C 77% 6.0 mph W9.7 kmh W 14.0 mph22.5 kmh 29.74 in1007.1 mb 0.00 in0.0 mm 0.00 in0.0 mm 0.05 in1.3 mm
11:39 AM 57.7°F14.3°C 50.4°F10.2°C 77% 5.0 mph WSW8.0 kmh WSW 14.0 mph22.5 kmh 29.75 in1007.5 mb 0.00 in0.0 mm 0.00 in0.0 mm 0.05 in1.3 mm
11:44 AM 57.3°F14.1°C 49.7°F9.8°C 76% 6.0 mph W9.7 kmh W 14.0 mph22.5 kmh 29.75 in1007.5 mb 0.00 in0.0 mm 0.00 in0.0 mm 0.05 in1.3 mm
11:49 AM 57.1°F13.9°C 49.1°F9.5°C 75% 6.0 mph WSW9.7 kmh WSW 15.0 mph24.1 kmh 29.75 in1007.5 mb 0.00 in0.0 mm 0.00 in0.0 mm 0.05 in1.3 mm
11:54 AM 57.4°F14.1°C 49.8°F9.9°C 76% 8.0 mph WSW12.9 kmh WSW 15.0 mph24.1 kmh 29.75 in1007.5 mb 0.00 in0.0 mm 0.00 in0.0 mm 0.05 in1.3 mm
11:59 AM 57.5°F14.2°C 49.1°F9.5°C 74% 5.0 mph WSW8.0 kmh WSW 15.0 mph24.1 kmh 29.75 in1007.5 mb 0.00 in0.0 mm 0.00 in0.0 mm 0.05 in1.3 mm
12:04 PM 57.4°F14.1°C 48.6°F9.2°C 73% 5.0 mph WNW8.0 kmh WNW 15.0 mph24.1 kmh 29.75 in1007.5 mb 0.00 in0.0 mm 0.00 in0.0 mm 0.05 in1.3 mm
12:09 PM 57.1°F13.9°C 48.7°F9.3°C 74% 8.0 mph W12.9 kmh W 11.0 mph17.7 kmh 29.75 in1007.5 mb 0.00 in0.0 mm 0.00 in0.0 mm 0.05 in1.3 mm
12:14 PM 57.1°F13.9°C 49.1°F9.5°C 75% 8.0 mph WSW12.9 kmh WSW 11.0 mph17.7 kmh 29.75 in1007.5 mb 0.00 in0.0 mm 0.00 in0.0 mm 0.05 in1.3 mm
12:19 PM 57.0°F13.9°C 49.0°F9.4°C 75% 9.0 mph W14.5 kmh W 11.0 mph17.7 kmh 29.75 in1007.5 mb 0.00 in0.0 mm 0.00 in0.0 mm 0.05 in1.3 mm
12:24 PM 57.0°F13.9°C 49.0°F9.4°C 75% 6.0 mph WSW9.7 kmh WSW 11.0 mph17.7 kmh 29.75 in1007.5 mb 0.00 in0.0 mm 0.00 in0.0 mm 0.05 in1.3 mm
12:29 PM 57.1°F13.9°C 49.1°F9.5°C 75% 3.0 mph WSW4.8 kmh WSW 11.0 mph17.7 kmh 29.75 in1007.5 mb 0.00 in0.0 mm 0.00 in0.0 mm 0.05 in1.3 mm
12:34 PM 57.1°F13.9°C 48.0°F8.9°C 72% 4.0 mph WSW6.4 kmh WSW 11.0 mph17.7 kmh 29.75 in1007.5 mb 0.00 in0.0 mm 0.00 in0.0 mm 0.05 in1.3 mm
12:39 PM 57.0°F13.9°C 47.9°F8.8°C 72% 3.0 mph W4.8 kmh W 11.0 mph17.7 kmh 29.75 in1007.5 mb 0.00 in0.0 mm 0.00 in0.0 mm 0.05 in1.3 mm
12:44 PM 57.2°F14.0°C 48.8°F9.3°C 74% 4.0 mph W6.4 kmh W 11.0 mph17.7 kmh 29.76 in1007.8 mb 0.00 in0.0 mm 0.00 in0.0 mm 0.05 in1.3 mm
12:49 PM 57.4°F14.1°C 48.3°F9.1°C 72% 3.0 mph WSW4.8 kmh WSW 12.0 mph19.3 kmh 29.76 in1007.8 mb 0.00 in0.0 mm 0.00 in0.0 mm 0.05 in1.3 mm
12:54 PM 57.4°F14.1°C 47.9°F8.8°C 71% 4.0 mph WSW6.4 kmh WSW 12.0 mph19.3 kmh 29.76 in1007.8 mb 0.00 in0.0 mm 0.00 in0.0 mm 0.05 in1.3 mm
12:59 PM 57.2°F14.0°C 47.3°F8.5°C 70% 5.0 mph SW8.0 kmh SW 12.0 mph19.3 kmh 29.76 in1007.8 mb 0.00 in0.0 mm 0.00 in0.0 mm 0.05 in1.3 mm
01:04 PM 57.1°F13.9°C 47.6°F8.7°C 71% 4.0 mph WSW6.4 kmh WSW 12.0 mph19.3 kmh 29.75 in1007.5 mb 0.00 in0.0 mm 0.00 in0.0 mm 0.05 in1.3 mm
01:09 PM 57.0°F13.9°C 47.5°F8.6°C 71% 4.0 mph W6.4 kmh W 12.0 mph19.3 kmh 29.75 in1007.5 mb 0.00 in0.0 mm 0.00 in0.0 mm 0.05 in1.3 mm
01:14 PM 56.9°F13.8°C 47.4°F8.6°C 71% 6.0 mph WSW9.7 kmh WSW 12.0 mph19.3 kmh 29.76 in1007.8 mb 0.00 in0.0 mm 0.00 in0.0 mm 0.05 in1.3 mm
01:19 PM 57.0°F13.9°C 47.5°F8.6°C 71% 5.0 mph WSW8.0 kmh WSW 11.0 mph17.7 kmh 29.75 in1007.5 mb 0.00 in0.0 mm 0.00 in0.0 mm 0.05 in1.3 mm
01:24 PM 57.1°F13.9°C 47.6°F8.7°C 71% 2.0 mph WSW3.2 kmh WSW 11.0 mph17.7 kmh 29.75 in1007.5 mb 0.00 in0.0 mm 0.00 in0.0 mm 0.05 in1.3 mm
01:29 PM 57.4°F14.1°C 48.3°F9.1°C 72% 4.0 mph WSW6.4 kmh WSW 11.0 mph17.7 kmh 29.75 in1007.5 mb 0.00 in0.0 mm 0.00 in0.0 mm 0.05 in1.3 mm
01:34 PM 57.4°F14.1°C 47.9°F8.8°C 71% 4.0 mph WSW6.4 kmh WSW 11.0 mph17.7 kmh 29.75 in1007.5 mb 0.00 in0.0 mm 0.00 in0.0 mm 0.05 in1.3 mm
01:39 PM 57.5°F14.2°C 47.6°F8.7°C 70% 5.0 mph WSW8.0 kmh WSW 11.0 mph17.7 kmh 29.75 in1007.5 mb 0.00 in0.0 mm 0.00 in0.0 mm 0.05 in1.3 mm
01:44 PM 57.4°F14.1°C 47.9°F8.8°C 71% 4.0 mph WSW6.4 kmh WSW 11.0 mph17.7 kmh 29.75 in1007.5 mb 0.00 in0.0 mm 0.00 in0.0 mm 0.05 in1.3 mm
01:49 PM 57.3°F14.1°C 47.0°F8.3°C 69% 4.0 mph W6.4 kmh W 11.0 mph17.7 kmh 29.75 in1007.5 mb 0.00 in0.0 mm 0.00 in0.0 mm 0.05 in1.3 mm
01:54 PM 57.2°F14.0°C 46.9°F8.3°C 69% 3.0 mph WSW4.8 kmh WSW 10.0 mph16.1 kmh 29.75 in1007.5 mb 0.00 in0.0 mm 0.00 in0.0 mm 0.05 in1.3 mm
01:59 PM 57.5°F14.2°C 47.6°F8.7°C 70% 7.0 mph W11.3 kmh W 10.0 mph16.1 kmh 29.75 in1007.5 mb 0.00 in0.0 mm 0.00 in0.0 mm 0.05 in1.3 mm
02:04 PM 57.8°F14.3°C 47.5°F8.6°C 69% 6.0 mph WSW9.7 kmh WSW 10.0 mph16.1 kmh 29.75 in1007.5 mb 0.00 in0.0 mm 0.00 in0.0 mm 0.05 in1.3 mm
02:09 PM 58.2°F14.6°C 48.3°F9.1°C 70% 2.0 mph W3.2 kmh W 10.0 mph16.1 kmh 29.75 in1007.5 mb 0.00 in0.0 mm 0.00 in0.0 mm 0.05 in1.3 mm
02:14 PM 59.1°F15.1°C 49.1°F9.5°C 70% 4.0 mph WSW6.4 kmh WSW 10.0 mph16.1 kmh 29.75 in1007.5 mb 0.00 in0.0 mm 0.00 in0.0 mm 0.05 in1.3 mm
02:19 PM 59.9°F15.5°C 49.1°F9.5°C 68% 7.0 mph NW11.3 kmh NW 11.0 mph17.7 kmh 29.75 in1007.5 mb 0.00 in0.0 mm 0.00 in0.0 mm 0.05 in1.3 mm
02:24 PM 58.9°F14.9°C 47.3°F8.5°C 66% 6.0 mph W9.7 kmh W 12.0 mph19.3 kmh 29.75 in1007.5 mb 0.00 in0.0 mm 0.00 in0.0 mm 0.05 in1.3 mm
02:29 PM 58.1°F14.5°C 47.0°F8.3°C 67% 3.0 mph W4.8 kmh W 12.0 mph19.3 kmh 29.74 in1007.1 mb 0.00 in0.0 mm 0.00 in0.0 mm 0.05 in1.3 mm
02:34 PM 57.8°F14.3°C 47.1°F8.4°C 68% 3.0 mph WSW4.8 kmh WSW 12.0 mph19.3 kmh 29.75 in1007.5 mb 0.00 in0.0 mm 0.00 in0.0 mm 0.05 in1.3 mm
02:39 PM 57.8°F14.3°C 47.1°F8.4°C 68% 3.0 mph W4.8 kmh W 12.0 mph19.3 kmh 29.74 in1007.1 mb 0.00 in0.0 mm 0.00 in0.0 mm 0.05 in1.3 mm
02:44 PM 57.8°F14.3°C 47.5°F8.6°C 69% 5.0 mph WSW8.0 kmh WSW 11.0 mph17.7 kmh 29.75 in1007.5 mb 0.00 in0.0 mm 0.00 in0.0 mm 0.05 in1.3 mm
02:49 PM 57.7°F14.3°C 47.0°F8.3°C 68% 4.0 mph W6.4 kmh W 11.0 mph17.7 kmh 29.75 in1007.5 mb 0.00 in0.0 mm 0.00 in0.0 mm 0.05 in1.3 mm
02:54 PM 57.4°F14.1°C 46.7°F8.2°C 68% 8.0 mph W12.9 kmh W 11.0 mph17.7 kmh 29.76 in1007.8 mb 0.00 in0.0 mm 0.00 in0.0 mm 0.05 in1.3 mm
02:59 PM 57.2°F14.0°C 46.5°F8.1°C 68% 4.0 mph WNW6.4 kmh WNW 11.0 mph17.7 kmh 29.75 in1007.5 mb 0.00 in0.0 mm 0.00 in0.0 mm 0.05 in1.3 mm
03:04 PM 57.3°F14.1°C 47.4°F8.6°C 70% 5.0 mph WNW8.0 kmh WNW 10.0 mph16.1 kmh 29.75 in1007.5 mb 0.00 in0.0 mm 0.00 in0.0 mm 0.05 in1.3 mm
03:09 PM 57.2°F14.0°C 46.9°F8.3°C 69% 4.0 mph W6.4 kmh W 10.0 mph16.1 kmh 29.75 in1007.5 mb 0.00 in0.0 mm 0.00 in0.0 mm 0.05 in1.3 mm
03:14 PM 57.6°F14.2°C 47.7°F8.7°C 70% 5.0 mph W8.0 kmh W 9.0 mph14.5 kmh 29.75 in1007.5 mb 0.00 in0.0 mm 0.00 in0.0 mm 0.05 in1.3 mm
03:19 PM 57.6°F14.2°C 47.3°F8.5°C 69% 3.0 mph W4.8 kmh W 9.0 mph14.5 kmh 29.75 in1007.5 mb 0.00 in0.0 mm 0.00 in0.0 mm 0.05 in1.3 mm
03:24 PM 57.7°F14.3°C 47.0°F8.3°C 68% 5.0 mph W8.0 kmh W 10.0 mph16.1 kmh 29.76 in1007.8 mb 0.00 in0.0 mm 0.00 in0.0 mm 0.05 in1.3 mm
03:29 PM 58.4°F14.7°C 47.7°F8.7°C 68% 3.0 mph W4.8 kmh W 10.0 mph16.1 kmh 29.76 in1007.8 mb 0.00 in0.0 mm 0.00 in0.0 mm 0.05 in1.3 mm
03:34 PM 58.2°F14.6°C 47.1°F8.4°C 67% 7.0 mph WNW11.3 kmh WNW 10.0 mph16.1 kmh 29.76 in1007.8 mb 0.00 in0.0 mm 0.00 in0.0 mm 0.05 in1.3 mm
03:39 PM 58.0°F14.4°C 46.9°F8.3°C 67% 4.0 mph W6.4 kmh W 12.0 mph19.3 kmh 29.76 in1007.8 mb 0.00 in0.0 mm 0.00 in0.0 mm 0.05 in1.3 mm
03:44 PM 57.7°F14.3°C 46.6°F8.1°C 67% 4.0 mph WNW6.4 kmh WNW 12.0 mph19.3 kmh 29.77 in1008.1 mb 0.00 in0.0 mm 0.00 in0.0 mm 0.05 in1.3 mm
03:49 PM 57.9°F14.4°C 47.2°F8.4°C 68% 8.0 mph WNW12.9 kmh WNW 12.0 mph19.3 kmh 29.76 in1007.8 mb 0.00 in0.0 mm 0.00 in0.0 mm 0.05 in1.3 mm
03:54 PM 58.0°F14.4°C 46.5°F8.1°C 66% 2.0 mph W3.2 kmh W 13.0 mph20.9 kmh 29.76 in1007.8 mb 0.00 in0.0 mm 0.00 in0.0 mm 0.05 in1.3 mm
03:59 PM 57.8°F14.3°C 45.9°F7.7°C 65% 5.0 mph W8.0 kmh W 13.0 mph20.9 kmh 29.76 in1007.8 mb 0.00 in0.0 mm 0.00 in0.0 mm 0.05 in1.3 mm
04:04 PM 57.6°F14.2°C 45.2°F7.3°C 64% 5.0 mph WNW8.0 kmh WNW 18.0 mph29.0 kmh 29.76 in1007.8 mb 0.00 in0.0 mm 0.00 in0.0 mm 0.05 in1.3 mm
04:09 PM 57.7°F14.3°C 45.8°F7.7°C 65% 5.0 mph WSW8.0 kmh WSW 18.0 mph29.0 kmh 29.76 in1007.8 mb 0.00 in0.0 mm 0.00 in0.0 mm 0.05 in1.3 mm
04:14 PM 57.8°F14.3°C 45.9°F7.7°C 65% 10.0 mph W16.1 kmh W 18.0 mph29.0 kmh 29.76 in1007.8 mb 0.00 in0.0 mm 0.00 in0.0 mm 0.05 in1.3 mm
04:19 PM 57.8°F14.3°C 45.9°F7.7°C 65% 6.0 mph WSW9.7 kmh WSW 18.0 mph29.0 kmh 29.76 in1007.8 mb 0.00 in0.0 mm 0.00 in0.0 mm 0.05 in1.3 mm
04:24 PM 58.0°F14.4°C 46.0°F7.8°C 65% 3.0 mph W4.8 kmh W 10.0 mph16.1 kmh 29.77 in1008.1 mb 0.00 in0.0 mm 0.00 in0.0 mm 0.05 in1.3 mm
04:29 PM 58.6°F14.8°C 47.0°F8.3°C 66% 12.0 mph WNW19.3 kmh WNW 12.0 mph19.3 kmh 29.76 in1007.8 mb 0.00 in0.0 mm 0.00 in0.0 mm 0.05 in1.3 mm
04:34 PM 58.7°F14.8°C 46.3°F7.9°C 64% 3.0 mph W4.8 kmh W 15.0 mph24.1 kmh 29.76 in1007.8 mb 0.00 in0.0 mm 0.00 in0.0 mm 0.05 in1.3 mm
04:39 PM 59.0°F15.0°C 46.6°F8.1°C 64% 4.0 mph W6.4 kmh W 17.0 mph27.4 kmh 29.76 in1007.8 mb 0.00 in0.0 mm 0.00 in0.0 mm 0.05 in1.3 mm
04:44 PM 59.1°F15.1°C 46.2°F7.9°C 63% 4.0 mph W6.4 kmh W 18.0 mph29.0 kmh 29.76 in1007.8 mb 0.00 in0.0 mm 0.00 in0.0 mm 0.05 in1.3 mm
04:49 PM 59.0°F15.0°C 46.6°F8.1°C 64% 5.0 mph W8.0 kmh W 18.0 mph29.0 kmh 29.77 in1008.1 mb 0.00 in0.0 mm 0.00 in0.0 mm 0.05 in1.3 mm
04:54 PM 58.6°F14.8°C 45.3°F7.4°C 62% 7.0 mph SW11.3 kmh SW 18.0 mph29.0 kmh 29.77 in1008.1 mb 0.00 in0.0 mm 0.00 in0.0 mm 0.05 in1.3 mm
04:59 PM 58.2°F14.6°C 45.4°F7.4°C 63% 13.0 mph SW20.9 kmh SW 18.0 mph29.0 kmh 29.77 in1008.1 mb 0.00 in0.0 mm 0.00 in0.0 mm 0.05 in1.3 mm
05:04 PM 58.1°F14.5°C 45.3°F7.4°C 63% 4.0 mph W6.4 kmh W 17.0 mph27.4 kmh 29.77 in1008.1 mb 0.00 in0.0 mm 0.00 in0.0 mm 0.05 in1.3 mm
05:09 PM 57.9°F14.4°C 45.1°F7.3°C 63% 8.0 mph WNW12.9 kmh WNW 17.0 mph27.4 kmh 29.77 in1008.1 mb 0.00 in0.0 mm 0.00 in0.0 mm 0.05 in1.3 mm
05:14 PM 57.8°F14.3°C 45.4°F7.4°C 64% 4.0 mph WNW6.4 kmh WNW 14.0 mph22.5 kmh 29.76 in1007.8 mb 0.00 in0.0 mm 0.00 in0.0 mm 0.05 in1.3 mm
05:19 PM 57.7°F14.3°C 45.3°F7.4°C 64% 5.0 mph W8.0 kmh W 16.0 mph25.7 kmh 29.76 in1007.8 mb 0.00 in0.0 mm 0.00 in0.0 mm 0.05 in1.3 mm
05:24 PM 57.5°F14.2°C 44.7°F7.1°C 63% 5.0 mph WNW8.0 kmh WNW 16.0 mph25.7 kmh 29.77 in1008.1 mb 0.00 in0.0 mm 0.00 in0.0 mm 0.05 in1.3 mm
05:29 PM 57.3°F14.1°C 45.0°F7.2°C 64% 6.0 mph WSW9.7 kmh WSW 16.0 mph25.7 kmh 29.77 in1008.1 mb 0.00 in0.0 mm 0.00 in0.0 mm 0.05 in1.3 mm
05:34 PM 57.3°F14.1°C 45.0°F7.2°C 64% 7.0 mph W11.3 kmh W 16.0 mph25.7 kmh 29.77 in1008.1 mb 0.00 in0.0 mm 0.00 in0.0 mm 0.05 in1.3 mm
05:39 PM 57.4°F14.1°C 45.1°F7.3°C 64% 4.0 mph WNW6.4 kmh WNW 13.0 mph20.9 kmh 29.77 in1008.1 mb 0.00 in0.0 mm 0.00 in0.0 mm 0.05 in1.3 mm
05:44 PM 57.3°F14.1°C 44.5°F6.9°C 63% 9.0 mph NW14.5 kmh NW 14.0 mph22.5 kmh 29.77 in1008.1 mb 0.00 in0.0 mm 0.00 in0.0 mm 0.05 in1.3 mm
05:49 PM 57.1°F13.9°C 44.3°F6.8°C 63% 4.0 mph W6.4 kmh W 14.0 mph22.5 kmh 29.77 in1008.1 mb 0.00 in0.0 mm 0.00 in0.0 mm 0.05 in1.3 mm
05:54 PM 56.9°F13.8°C 44.6°F7.0°C 64% 5.0 mph WSW8.0 kmh WSW 14.0 mph22.5 kmh 29.77 in1008.1 mb 0.00 in0.0 mm 0.00 in0.0 mm 0.05 in1.3 mm
05:59 PM 56.8°F13.8°C 44.5°F6.9°C 64% 5.0 mph NW8.0 kmh NW 14.0 mph22.5 kmh 29.77 in1008.1 mb 0.00 in0.0 mm 0.00 in0.0 mm 0.05 in1.3 mm
06:04 PM 56.6°F13.7°C 43.9°F6.6°C 63% 5.0 mph W8.0 kmh W 19.0 mph30.6 kmh 29.77 in1008.1 mb 0.00 in0.0 mm 0.00 in0.0 mm 0.05 in1.3 mm
06:09 PM 56.3°F13.5°C 43.6°F6.4°C 63% 6.0 mph WNW9.7 kmh WNW 19.0 mph30.6 kmh 29.78 in1008.5 mb 0.00 in0.0 mm 0.00 in0.0 mm 0.05 in1.3 mm
06:14 PM 56.1°F13.4°C 43.8°F6.6°C 64% 10.0 mph W16.1 kmh W 19.0 mph30.6 kmh 29.78 in1008.5 mb 0.00 in0.0 mm 0.00 in0.0 mm 0.05 in1.3 mm
06:19 PM 55.9°F13.3°C 44.1°F6.7°C 65% 8.0 mph WNW12.9 kmh WNW 19.0 mph30.6 kmh 29.78 in1008.5 mb 0.00 in0.0 mm 0.00 in0.0 mm 0.05 in1.3 mm
06:24 PM 55.7°F13.2°C 43.9°F6.6°C 65% 2.0 mph NNW3.2 kmh NNW 14.0 mph22.5 kmh 29.79 in1008.8 mb 0.00 in0.0 mm 0.00 in0.0 mm 0.05 in1.3 mm
06:29 PM 55.5°F13.1°C 43.7°F6.5°C 65% 5.0 mph NW8.0 kmh NW 17.0 mph27.4 kmh 29.79 in1008.8 mb 0.00 in0.0 mm 0.00 in0.0 mm 0.05 in1.3 mm
06:34 PM 55.3°F12.9°C 43.5°F6.4°C 65% 7.0 mph W11.3 kmh W 17.0 mph27.4 kmh 29.80 in1009.1 mb 0.00 in0.0 mm 0.00 in0.0 mm 0.05 in1.3 mm
06:39 PM 55.1°F12.8°C 43.3°F6.3°C 65% 9.0 mph WNW14.5 kmh WNW 17.0 mph27.4 kmh 29.80 in1009.1 mb 0.00 in0.0 mm 0.00 in0.0 mm 0.05 in1.3 mm
06:44 PM 54.8°F12.7°C 43.0°F6.1°C 65% 5.0 mph WSW8.0 kmh WSW 17.0 mph27.4 kmh 29.80 in1009.1 mb 0.00 in0.0 mm 0.00 in0.0 mm 0.05 in1.3 mm
06:49 PM 54.5°F12.5°C 42.7°F5.9°C 65% 8.0 mph WNW12.9 kmh WNW 16.0 mph25.7 kmh 29.80 in1009.1 mb 0.00 in0.0 mm 0.00 in0.0 mm 0.05 in1.3 mm
06:54 PM 54.4°F12.4°C 42.6°F5.9°C 65% 6.0 mph W9.7 kmh W 16.0 mph25.7 kmh 29.80 in1009.1 mb 0.00 in0.0 mm 0.00 in0.0 mm 0.05 in1.3 mm
06:59 PM 54.3°F12.4°C 42.5°F5.8°C 65% 5.0 mph NNW8.0 kmh NNW 17.0 mph27.4 kmh 29.80 in1009.1 mb 0.00 in0.0 mm 0.00 in0.0 mm 0.05 in1.3 mm
07:04 PM 54.2°F12.3°C 42.9°F6.1°C 66% 8.0 mph WNW12.9 kmh WNW 17.0 mph27.4 kmh 29.80 in1009.1 mb 0.00 in0.0 mm 0.00 in0.0 mm 0.05 in1.3 mm
07:09 PM 54.1°F12.3°C 42.8°F6.0°C 66% 3.0 mph WNW4.8 kmh WNW 17.0 mph27.4 kmh 29.80 in1009.1 mb 0.00 in0.0 mm 0.00 in0.0 mm 0.05 in1.3 mm
07:14 PM 54.0°F12.2°C 42.7°F5.9°C 66% 8.0 mph W12.9 kmh W 17.0 mph27.4 kmh 29.80 in1009.1 mb 0.00 in0.0 mm 0.00 in0.0 mm 0.05 in1.3 mm
07:19 PM 54.0°F12.2°C 42.7°F5.9°C 66% 6.0 mph W9.7 kmh W 14.0 mph22.5 kmh 29.80 in1009.1 mb 0.00 in0.0 mm 0.00 in0.0 mm 0.05 in1.3 mm
07:24 PM 54.0°F12.2°C 43.1°F6.2°C 67% 10.0 mph W16.1 kmh W 15.0 mph24.1 kmh 29.81 in1009.5 mb 0.00 in0.0 mm 0.00 in0.0 mm 0.05 in1.3 mm
07:29 PM 53.9°F12.2°C 43.0°F6.1°C 67% 10.0 mph WNW16.1 kmh WNW 15.0 mph24.1 kmh 29.81 in1009.5 mb 0.00 in0.0 mm 0.00 in0.0 mm 0.05 in1.3 mm
07:34 PM 53.8°F12.1°C 42.9°F6.1°C 67% 10.0 mph WNW16.1 kmh WNW 15.0 mph24.1 kmh 29.81 in1009.5 mb 0.00 in0.0 mm 0.00 in0.0 mm 0.05 in1.3 mm
07:39 PM 53.8°F12.1°C 42.5°F5.8°C 66% 4.0 mph WNW6.4 kmh WNW 18.0 mph29.0 kmh 29.81 in1009.5 mb 0.00 in0.0 mm 0.00 in0.0 mm 0.05 in1.3 mm
07:44 PM 53.7°F12.1°C 42.0°F5.6°C 65% 9.0 mph WSW14.5 kmh WSW 18.0 mph29.0 kmh 29.81 in1009.5 mb 0.00 in0.0 mm 0.00 in0.0 mm 0.05 in1.3 mm
07:49 PM 53.7°F12.1°C 42.4°F5.8°C 66% 3.0 mph WNW4.8 kmh WNW 18.0 mph29.0 kmh 29.82 in1009.8 mb 0.00 in0.0 mm 0.00 in0.0 mm 0.05 in1.3 mm
07:54 PM 53.6°F12.0°C 42.7°F5.9°C 67% 2.0 mph WNW3.2 kmh WNW 18.0 mph29.0 kmh 29.82 in1009.8 mb 0.00 in0.0 mm 0.00 in0.0 mm 0.05 in1.3 mm
07:59 PM 53.5°F11.9°C 42.2°F5.7°C 66% 4.0 mph NW6.4 kmh NW 12.0 mph19.3 kmh 29.82 in1009.8 mb 0.00 in0.0 mm 0.00 in0.0 mm 0.05 in1.3 mm
08:04 PM 53.4°F11.9°C 42.1°F5.6°C 66% 6.0 mph WNW9.7 kmh WNW 12.0 mph19.3 kmh 29.82 in1009.8 mb 0.00 in0.0 mm 0.00 in0.0 mm 0.05 in1.3 mm
08:09 PM 53.3°F11.8°C 41.6°F5.3°C 65% 4.0 mph WNW6.4 kmh WNW 13.0 mph20.9 kmh 29.82 in1009.8 mb 0.00 in0.0 mm 0.00 in0.0 mm 0.05 in1.3 mm
08:14 PM 53.2°F11.8°C 41.9°F5.5°C 66% 4.0 mph W6.4 kmh W 13.0 mph20.9 kmh 29.82 in1009.8 mb 0.00 in0.0 mm 0.00 in0.0 mm 0.05 in1.3 mm
08:19 PM 53.2°F11.8°C 41.9°F5.5°C 66% 3.0 mph WSW4.8 kmh WSW 14.0 mph22.5 kmh 29.83 in1010.2 mb 0.00 in0.0 mm 0.00 in0.0 mm 0.05 in1.3 mm
08:24 PM 53.1°F11.7°C 41.8°F5.4°C 66% 8.0 mph W12.9 kmh W 14.0 mph22.5 kmh 29.83 in1010.2 mb 0.00 in0.0 mm 0.00 in0.0 mm 0.05 in1.3 mm
08:29 PM 53.0°F11.7°C 41.7°F5.4°C 66% 7.0 mph W11.3 kmh W 16.0 mph25.7 kmh 29.83 in1010.2 mb 0.00 in0.0 mm 0.00 in0.0 mm 0.05 in1.3 mm
08:34 PM 52.9°F11.6°C 41.6°F5.3°C 66% 17.0 mph WNW27.4 kmh WNW 19.0 mph30.6 kmh 29.84 in1010.5 mb 0.00 in0.0 mm 0.00 in0.0 mm 0.05 in1.3 mm
08:39 PM 52.7°F11.5°C 41.4°F5.2°C 66% 3.0 mph W4.8 kmh W 19.0 mph30.6 kmh 29.84 in1010.5 mb 0.00 in0.0 mm 0.00 in0.0 mm 0.05 in1.3 mm
08:44 PM 52.6°F11.4°C 40.9°F4.9°C 65% 5.0 mph W8.0 kmh W 19.0 mph30.6 kmh 29.84 in1010.5 mb 0.00 in0.0 mm 0.00 in0.0 mm 0.05 in1.3 mm
08:49 PM 52.5°F11.4°C 40.8°F4.9°C 65% 4.0 mph N6.4 kmh N 20.0 mph32.2 kmh 29.85 in1010.8 mb 0.00 in0.0 mm 0.00 in0.0 mm 0.05 in1.3 mm
08:54 PM 52.4°F11.3°C 40.7°F4.8°C 65% 6.0 mph W9.7 kmh W 20.0 mph32.2 kmh 29.85 in1010.8 mb 0.00 in0.0 mm 0.00 in0.0 mm 0.05 in1.3 mm
08:59 PM 52.3°F11.3°C 40.7°F4.8°C 65% 4.0 mph W6.4 kmh W 20.0 mph32.2 kmh 29.85 in1010.8 mb 0.00 in0.0 mm 0.00 in0.0 mm 0.05 in1.3 mm
09:04 PM 52.2°F11.2°C 40.6°F4.8°C 65% 5.0 mph WNW8.0 kmh WNW 20.0 mph32.2 kmh 29.85 in1010.8 mb 0.00 in0.0 mm 0.00 in0.0 mm 0.05 in1.3 mm
09:09 PM 52.2°F11.2°C 41.0°F5.0°C 66% 5.0 mph W8.0 kmh W 15.0 mph24.1 kmh 29.85 in1010.8 mb 0.00 in0.0 mm 0.00 in0.0 mm 0.05 in1.3 mm
09:14 PM 52.1°F11.2°C 40.9°F4.9°C 66% 7.0 mph W11.3 kmh W 15.0 mph24.1 kmh 29.86 in1011.2 mb 0.00 in0.0 mm 0.00 in0.0 mm 0.05 in1.3 mm
09:19 PM 52.0°F11.1°C 40.8°F4.9°C 66% 9.0 mph W14.5 kmh W 16.0 mph25.7 kmh 29.86 in1011.2 mb 0.00 in0.0 mm 0.00 in0.0 mm 0.05 in1.3 mm
09:24 PM 51.9°F11.1°C 40.7°F4.8°C 66% 4.0 mph W6.4 kmh W 16.0 mph25.7 kmh 29.86 in1011.2 mb 0.00 in0.0 mm 0.00 in0.0 mm 0.05 in1.3 mm
09:29 PM 51.8°F11.0°C 40.6°F4.8°C 66% 5.0 mph NW8.0 kmh NW 16.0 mph25.7 kmh 29.86 in1011.2 mb 0.00 in0.0 mm 0.00 in0.0 mm 0.05 in1.3 mm
09:34 PM 51.8°F11.0°C 40.6°F4.8°C 66% 3.0 mph WNW4.8 kmh WNW 16.0 mph25.7 kmh 29.86 in1011.2 mb 0.00 in0.0 mm 0.00 in0.0 mm 0.05 in1.3 mm
09:39 PM 51.7°F10.9°C 40.1°F4.5°C 65% 9.0 mph WSW14.5 kmh WSW 15.0 mph24.1 kmh 29.87 in1011.5 mb 0.00 in0.0 mm 0.00 in0.0 mm 0.05 in1.3 mm
09:44 PM 51.6°F10.9°C 40.0°F4.4°C 65% 6.0 mph W9.7 kmh W 19.0 mph30.6 kmh 29.87 in1011.5 mb 0.00 in0.0 mm 0.00 in0.0 mm 0.05 in1.3 mm
09:49 PM 51.5°F10.8°C 39.9°F4.4°C 65% 10.0 mph W16.1 kmh W 19.0 mph30.6 kmh 29.87 in1011.5 mb 0.00 in0.0 mm 0.00 in0.0 mm 0.05 in1.3 mm
09:54 PM 51.5°F10.8°C 40.3°F4.6°C 66% 4.0 mph SW6.4 kmh SW 19.0 mph30.6 kmh 29.87 in1011.5 mb 0.00 in0.0 mm 0.00 in0.0 mm 0.05 in1.3 mm
09:59 PM 51.4°F10.8°C 40.2°F4.6°C 66% 8.0 mph WNW12.9 kmh WNW 19.0 mph30.6 kmh 29.87 in1011.5 mb 0.00 in0.0 mm 0.00 in0.0 mm 0.05 in1.3 mm
10:04 PM 51.3°F10.7°C 40.1°F4.5°C 66% 8.0 mph W12.9 kmh W 16.0 mph25.7 kmh 29.87 in1011.5 mb 0.00 in0.0 mm 0.00 in0.0 mm 0.05 in1.3 mm
10:09 PM 51.3°F10.7°C 40.1°F4.5°C 66% 6.0 mph WNW9.7 kmh WNW 16.0 mph25.7 kmh 29.87 in1011.5 mb 0.00 in0.0 mm 0.00 in0.0 mm 0.05 in1.3 mm
10:14 PM 51.3°F10.7°C 40.1°F4.5°C 66% 9.0 mph W14.5 kmh W 9.0 mph14.5 kmh 29.87 in1011.5 mb 0.00 in0.0 mm 0.00 in0.0 mm 0.05 in1.3 mm
10:19 PM 51.2°F10.7°C 40.0°F4.4°C 66% 9.0 mph W14.5 kmh W 15.0 mph24.1 kmh 29.87 in1011.5 mb 0.00 in0.0 mm 0.00 in0.0 mm 0.05 in1.3 mm
10:24 PM 51.1°F10.6°C 39.9°F4.4°C 66% 8.0 mph W12.9 kmh W 15.0 mph24.1 kmh 29.87 in1011.5 mb 0.00 in0.0 mm 0.00 in0.0 mm 0.05 in1.3 mm
10:29 PM 51.1°F10.6°C 39.5°F4.2°C 65% 4.0 mph W6.4 kmh W 15.0 mph24.1 kmh 29.87 in1011.5 mb 0.00 in0.0 mm 0.00 in0.0 mm 0.05 in1.3 mm
10:34 PM 51.1°F10.6°C 39.9°F4.4°C 66% 3.0 mph WNW4.8 kmh WNW 15.0 mph24.1 kmh 29.87 in1011.5 mb 0.00 in0.0 mm 0.00 in0.0 mm 0.05 in1.3 mm
10:39 PM 51.0°F10.6°C 39.4°F4.1°C 65% 2.0 mph N3.2 kmh N 13.0 mph20.9 kmh 29.87 in1011.5 mb 0.00 in0.0 mm 0.00 in0.0 mm 0.05 in1.3 mm
10:44 PM 50.9°F10.5°C 39.3°F4.1°C 65% 3.0 mph NW4.8 kmh NW 13.0 mph20.9 kmh 29.87 in1011.5 mb 0.00 in0.0 mm 0.00 in0.0 mm 0.05 in1.3 mm
10:49 PM 50.9°F10.5°C 39.3°F4.1°C 65% 4.0 mph NW6.4 kmh NW 11.0 mph17.7 kmh 29.87 in1011.5 mb 0.00 in0.0 mm 0.00 in0.0 mm 0.05 in1.3 mm
10:54 PM 50.8°F10.4°C 39.2°F4.0°C 65% 5.0 mph WNW8.0 kmh WNW 11.0 mph17.7 kmh 29.87 in1011.5 mb 0.00 in0.0 mm 0.00 in0.0 mm 0.05 in1.3 mm
10:59 PM 50.9°F10.5°C 39.3°F4.1°C 65% 3.0 mph WNW4.8 kmh WNW 13.0 mph20.9 kmh 29.87 in1011.5 mb 0.00 in0.0 mm 0.00 in0.0 mm 0.05 in1.3 mm
11:04 PM 50.9°F10.5°C 39.3°F4.1°C 65% 7.0 mph WNW11.3 kmh WNW 13.0 mph20.9 kmh 29.87 in1011.5 mb 0.00 in0.0 mm 0.00 in0.0 mm 0.05 in1.3 mm
11:09 PM 50.9°F10.5°C 39.3°F4.1°C 65% 3.0 mph NW4.8 kmh NW 13.0 mph20.9 kmh 29.87 in1011.5 mb 0.00 in0.0 mm 0.00 in0.0 mm 0.05 in1.3 mm
11:14 PM 50.9°F10.5°C 39.3°F4.1°C 65% 7.0 mph N11.3 kmh N 13.0 mph20.9 kmh 29.87 in1011.5 mb 0.00 in0.0 mm 0.00 in0.0 mm 0.05 in1.3 mm
11:19 PM 50.9°F10.5°C 39.7°F4.3°C 66% 4.0 mph WNW6.4 kmh WNW 8.0 mph12.9 kmh 29.87 in1011.5 mb 0.00 in0.0 mm 0.00 in0.0 mm 0.05 in1.3 mm
11:24 PM 50.9°F10.5°C 39.7°F4.3°C 66% 3.0 mph NW4.8 kmh NW 9.0 mph14.5 kmh 29.87 in1011.5 mb 0.00 in0.0 mm 0.00 in0.0 mm 0.05 in1.3 mm
11:29 PM 50.9°F10.5°C 39.7°F4.3°C 66% 3.0 mph WNW4.8 kmh WNW 10.0 mph16.1 kmh 29.87 in1011.5 mb 0.00 in0.0 mm 0.00 in0.0 mm 0.05 in1.3 mm
11:34 PM 50.8°F10.4°C 39.6°F4.2°C 66% 3.0 mph W4.8 kmh W 10.0 mph16.1 kmh 29.87 in1011.5 mb 0.00 in0.0 mm 0.00 in0.0 mm 0.05 in1.3 mm
11:39 PM 50.8°F10.4°C 39.6°F4.2°C 66% 3.0 mph NW4.8 kmh NW 10.0 mph16.1 kmh 29.87 in1011.5 mb 0.00 in0.0 mm 0.00 in0.0 mm 0.05 in1.3 mm
11:44 PM 50.8°F10.4°C 40.0°F4.4°C 67% 3.0 mph NW4.8 kmh NW 10.0 mph16.1 kmh 29.87 in1011.5 mb 0.00 in0.0 mm 0.00 in0.0 mm 0.05 in1.3 mm
11:49 PM 50.8°F10.4°C 40.0°F4.4°C 67% 3.0 mph W4.8 kmh W 11.0 mph17.7 kmh 29.87 in1011.5 mb 0.00 in0.0 mm 0.00 in0.0 mm 0.05 in1.3 mm
11:54 PM 50.8°F10.4°C 40.0°F4.4°C 67% 2.0 mph NW3.2 kmh NW 11.0 mph17.7 kmh 29.87 in1011.5 mb 0.00 in0.0 mm 0.00 in0.0 mm 0.05 in1.3 mm
11:59 PM 50.8°F10.4°C 40.0°F4.4°C 67% 2.0 mph W3.2 kmh W 11.0 mph17.7 kmh 29.87 in1011.5 mb 0.00 in0.0 mm 0.00 in0.0 mm 0.05 in1.3 mm